PWSweather.com
Personal Weather Stations
Station Observations
KTXROWLE6
Ravens Nest, Rowlett, TX 75089

Ravens NestRowlett, TX 75089

Lat: 32.93105, Lon: -96.57368

Elevation: 556

Station Type: Davis Vantage Pro2 6152

http://rowlett.ws

Latest ConditionsUpdated 11:20:05 AM CST Friday, Dec 9, 2016
Currently Today's Max Today's Min Today's Average
Temperature 34.5°F1.4°C 34.5°F1.4°C 27.6°F-2.4°C 30.1°F-1.1°C
Dew Point 19.1°F-7.2°C 22.0°F-5.6°C 17.3°F-8.2°C 19.0°F-7.2°C
Winds 5.0 mph E8.0 kmh E 7.0 mph E11.3 kmh E - 0.9 mph 1.4 kmh
Wind Gusts 5.0 mph8.0 kmh 9.0 mph14.5 kmh - -
Humidity 53% 70% 52% 63%
Pressure 30.71 in1040.0 mb 30.74 in1041.0 mb 30.70 in1039.6 mb -
Hour Temp Dew Point Humidity Winds Wind Gusts Pressure Precip Precip Rate Daily Precip Total
11:20 AM 34.5°F1.4°C 19.1°F-7.2°C 53% 5.0 mph E8.0 kmh E 5.0 mph8.0 kmh 30.71 in1040.0 mb 0.00 in0.0 mm 0.00 in0.0 mm 0.00 in0.0 mm
11:15 AM 34.4°F1.3°C 19.4°F-7.0°C 54% 1.0 mph E1.6 kmh E 5.0 mph8.0 kmh 30.71 in1040.0 mb 0.00 in0.0 mm 0.00 in0.0 mm 0.00 in0.0 mm
11:10 AM 34.4°F1.3°C 18.6°F-7.4°C 52% 1.0 mph E1.6 kmh E 7.0 mph11.3 kmh 30.71 in1040.0 mb 0.00 in0.0 mm 0.00 in0.0 mm 0.00 in0.0 mm
11:05 AM 34.4°F1.3°C 19.0°F-7.2°C 53% 2.0 mph E3.2 kmh E 7.0 mph11.3 kmh 30.72 in1040.3 mb 0.00 in0.0 mm 0.00 in0.0 mm 0.00 in0.0 mm
11:00 AM 34.3°F1.3°C 19.4°F-7.0°C 54% 3.0 mph E4.8 kmh E 7.0 mph11.3 kmh 30.72 in1040.3 mb 0.00 in0.0 mm 0.00 in0.0 mm 0.00 in0.0 mm
10:55 AM 34.3°F1.3°C 19.4°F-7.0°C 54% 5.0 mph E8.0 kmh E 8.0 mph12.9 kmh 30.72 in1040.3 mb 0.00 in0.0 mm 0.00 in0.0 mm 0.00 in0.0 mm
10:50 AM 34.1°F1.2°C 19.2°F-7.1°C 54% 1.0 mph ENE1.6 kmh ENE 5.0 mph8.0 kmh 30.72 in1040.3 mb 0.00 in0.0 mm 0.00 in0.0 mm 0.00 in0.0 mm
10:45 AM 33.9°F1.1°C 19.8°F-6.8°C 56% 2.0 mph E3.2 kmh E 7.0 mph11.3 kmh 30.72 in1040.3 mb 0.00 in0.0 mm 0.00 in0.0 mm 0.00 in0.0 mm
10:40 AM 33.8°F1.0°C 18.9°F-7.3°C 54% 7.0 mph E11.3 kmh E 8.0 mph12.9 kmh 30.72 in1040.3 mb 0.00 in0.0 mm 0.00 in0.0 mm 0.00 in0.0 mm
10:35 AM 33.8°F1.0°C 18.5°F-7.5°C 53% 5.0 mph ENE8.0 kmh ENE 9.0 mph14.5 kmh 30.73 in1040.6 mb 0.00 in0.0 mm 0.00 in0.0 mm 0.00 in0.0 mm
10:30 AM 33.9°F1.1°C 18.5°F-7.5°C 53% 2.0 mph ENE3.2 kmh ENE 5.0 mph8.0 kmh 30.73 in1040.6 mb 0.00 in0.0 mm 0.00 in0.0 mm 0.00 in0.0 mm
10:25 AM 33.9°F1.1°C 19.0°F-7.2°C 54% 2.0 mph ENE3.2 kmh ENE 7.0 mph11.3 kmh 30.73 in1040.6 mb 0.00 in0.0 mm 0.00 in0.0 mm 0.00 in0.0 mm
10:20 AM 33.7°F0.9°C 19.2°F-7.1°C 55% 2.0 mph ENE3.2 kmh ENE 4.0 mph6.4 kmh 30.73 in1040.6 mb 0.00 in0.0 mm 0.00 in0.0 mm 0.00 in0.0 mm
10:15 AM 33.7°F0.9°C 19.2°F-7.1°C 55% 3.0 mph ENE4.8 kmh ENE 5.0 mph8.0 kmh 30.73 in1040.6 mb 0.00 in0.0 mm 0.00 in0.0 mm 0.00 in0.0 mm
10:10 AM 33.7°F0.9°C 19.6°F-6.9°C 56% 3.0 mph NE4.8 kmh NE 7.0 mph11.3 kmh 30.73 in1040.6 mb 0.00 in0.0 mm 0.00 in0.0 mm 0.00 in0.0 mm
10:05 AM 33.5°F0.8°C 20.3°F-6.5°C 58% 3.0 mph ENE4.8 kmh ENE 5.0 mph8.0 kmh 30.73 in1040.6 mb 0.00 in0.0 mm 0.00 in0.0 mm 0.00 in0.0 mm
10:00 AM 33.2°F0.7°C 20.4°F-6.4°C 59% Calm Calm 5.0 mph8.0 kmh 30.73 in1040.6 mb 0.00 in0.0 mm 0.00 in0.0 mm 0.00 in0.0 mm
09:55 AM 32.9°F0.5°C 19.7°F-6.8°C 58% 2.0 mph ENE3.2 kmh ENE 5.0 mph8.0 kmh 30.73 in1040.6 mb 0.00 in0.0 mm 0.00 in0.0 mm 0.00 in0.0 mm
09:50 AM 32.9°F0.5°C 20.1°F-6.6°C 59% 4.0 mph E6.4 kmh E 7.0 mph11.3 kmh 30.73 in1040.6 mb 0.00 in0.0 mm 0.00 in0.0 mm 0.00 in0.0 mm
09:45 AM 32.7°F0.4°C 19.9°F-6.7°C 59% 3.0 mph NE4.8 kmh NE 7.0 mph11.3 kmh 30.73 in1040.6 mb 0.00 in0.0 mm 0.00 in0.0 mm 0.00 in0.0 mm
09:40 AM 32.6°F0.3°C 19.8°F-6.8°C 59% 1.0 mph ENE1.6 kmh ENE 5.0 mph8.0 kmh 30.73 in1040.6 mb 0.00 in0.0 mm 0.00 in0.0 mm 0.00 in0.0 mm
09:35 AM 32.4°F0.2°C 19.2°F-7.1°C 58% 2.0 mph ENE3.2 kmh ENE 7.0 mph11.3 kmh 30.73 in1040.6 mb 0.00 in0.0 mm 0.00 in0.0 mm 0.00 in0.0 mm
09:30 AM 32.3°F0.2°C 19.1°F-7.2°C 58% 4.0 mph ENE6.4 kmh ENE 7.0 mph11.3 kmh 30.73 in1040.6 mb 0.00 in0.0 mm 0.00 in0.0 mm 0.00 in0.0 mm
09:25 AM 32.3°F0.2°C 19.1°F-7.2°C 58% 2.0 mph ENE3.2 kmh ENE 5.0 mph8.0 kmh 30.73 in1040.6 mb 0.00 in0.0 mm 0.00 in0.0 mm 0.00 in0.0 mm
09:20 AM 32.1°F0.1°C 19.8°F-6.8°C 60% 1.0 mph NE1.6 kmh NE 3.0 mph4.8 kmh 30.73 in1040.6 mb 0.00 in0.0 mm 0.00 in0.0 mm 0.00 in0.0 mm
09:15 AM 31.9°F-0.1°C 19.2°F-7.1°C 59% 1.0 mph NE1.6 kmh NE 5.0 mph8.0 kmh 30.73 in1040.6 mb 0.00 in0.0 mm 0.00 in0.0 mm 0.00 in0.0 mm
09:10 AM 31.9°F-0.1°C 19.2°F-7.1°C 59% Calm Calm 7.0 mph11.3 kmh 30.74 in1041.0 mb 0.00 in0.0 mm 0.00 in0.0 mm 0.00 in0.0 mm
09:05 AM 31.9°F-0.1°C 18.8°F-7.3°C 58% 2.0 mph ENE3.2 kmh ENE 8.0 mph12.9 kmh 30.73 in1040.6 mb 0.00 in0.0 mm 0.00 in0.0 mm 0.00 in0.0 mm
09:00 AM 31.9°F-0.1°C 19.2°F-7.1°C 59% 1.0 mph ENE1.6 kmh ENE 5.0 mph8.0 kmh 30.73 in1040.6 mb 0.00 in0.0 mm 0.00 in0.0 mm 0.00 in0.0 mm
08:55 AM 31.9°F-0.1°C 19.2°F-7.1°C 59% 2.0 mph ENE3.2 kmh ENE 5.0 mph8.0 kmh 30.73 in1040.6 mb 0.00 in0.0 mm 0.00 in0.0 mm 0.00 in0.0 mm
08:50 AM 31.8°F-0.1°C 19.5°F-6.9°C 60% 1.0 mph ENE1.6 kmh ENE 7.0 mph11.3 kmh 30.73 in1040.6 mb 0.00 in0.0 mm 0.00 in0.0 mm 0.00 in0.0 mm
08:45 AM 31.8°F-0.1°C 19.9°F-6.7°C 61% 4.0 mph ENE6.4 kmh ENE 7.0 mph11.3 kmh 30.73 in1040.6 mb 0.00 in0.0 mm 0.00 in0.0 mm 0.00 in0.0 mm
08:40 AM 31.8°F-0.1°C 20.6°F-6.3°C 63% 1.0 mph ENE1.6 kmh ENE 4.0 mph6.4 kmh 30.73 in1040.6 mb 0.00 in0.0 mm 0.00 in0.0 mm 0.00 in0.0 mm
08:35 AM 31.7°F-0.2°C 20.1°F-6.6°C 62% 3.0 mph ENE4.8 kmh ENE 4.0 mph6.4 kmh 30.73 in1040.6 mb 0.00 in0.0 mm 0.00 in0.0 mm 0.00 in0.0 mm
08:30 AM 31.5°F-0.3°C 20.0°F-6.7°C 62% 1.0 mph ENE1.6 kmh ENE 7.0 mph11.3 kmh 30.73 in1040.6 mb 0.00 in0.0 mm 0.00 in0.0 mm 0.00 in0.0 mm
08:25 AM 31.5°F-0.3°C 20.3°F-6.5°C 63% 1.0 mph NE1.6 kmh NE 8.0 mph12.9 kmh 30.73 in1040.6 mb 0.00 in0.0 mm 0.00 in0.0 mm 0.00 in0.0 mm
08:20 AM 31.5°F-0.3°C 20.7°F-6.3°C 64% Calm Calm 3.0 mph4.8 kmh 30.73 in1040.6 mb 0.00 in0.0 mm 0.00 in0.0 mm 0.00 in0.0 mm
08:15 AM 31.4°F-0.3°C 21.0°F-6.1°C 65% Calm Calm 7.0 mph11.3 kmh 30.73 in1040.6 mb 0.00 in0.0 mm 0.00 in0.0 mm 0.00 in0.0 mm
08:10 AM 31.3°F-0.4°C 21.2°F-6.0°C 66% Calm Calm 2.0 mph3.2 kmh 30.74 in1041.0 mb 0.00 in0.0 mm 0.00 in0.0 mm 0.00 in0.0 mm
08:05 AM 31.2°F-0.4°C 21.8°F-5.7°C 68% 1.0 mph NNW1.6 kmh NNW 3.0 mph4.8 kmh 30.74 in1041.0 mb 0.00 in0.0 mm 0.00 in0.0 mm 0.00 in0.0 mm
08:00 AM 31.0°F-0.6°C 22.0°F-5.6°C 69% Calm Calm 1.0 mph1.6 kmh 30.74 in1041.0 mb 0.00 in0.0 mm 0.00 in0.0 mm 0.00 in0.0 mm
07:55 AM 30.8°F-0.7°C 21.8°F-5.7°C 69% Calm Calm 2.0 mph3.2 kmh 30.74 in1041.0 mb 0.00 in0.0 mm 0.00 in0.0 mm 0.00 in0.0 mm
07:50 AM 30.7°F-0.7°C 21.4°F-5.9°C 68% Calm Calm 1.0 mph1.6 kmh 30.73 in1040.6 mb 0.00 in0.0 mm 0.00 in0.0 mm 0.00 in0.0 mm
07:45 AM 30.6°F-0.8°C 21.3°F-5.9°C 68% Calm Calm -- 30.73 in1040.6 mb 0.00 in0.0 mm 0.00 in0.0 mm 0.00 in0.0 mm
07:40 AM 30.5°F-0.8°C 21.2°F-6.0°C 68% Calm Calm -- 30.73 in1040.6 mb 0.00 in0.0 mm 0.00 in0.0 mm 0.00 in0.0 mm
07:35 AM 30.4°F-0.9°C 21.1°F-6.1°C 68% Calm Calm -- 30.73 in1040.6 mb 0.00 in0.0 mm 0.00 in0.0 mm 0.00 in0.0 mm
07:30 AM 30.3°F-0.9°C 21.0°F-6.1°C 68% Calm Calm -- 30.73 in1040.6 mb 0.00 in0.0 mm 0.00 in0.0 mm 0.00 in0.0 mm
07:25 AM 30.2°F-1.0°C 20.9°F-6.2°C 68% Calm Calm 1.0 mph1.6 kmh 30.73 in1040.6 mb 0.00 in0.0 mm 0.00 in0.0 mm 0.00 in0.0 mm
07:20 AM 30.1°F-1.1°C 20.8°F-6.2°C 68% Calm Calm 2.0 mph3.2 kmh 30.73 in1040.6 mb 0.00 in0.0 mm 0.00 in0.0 mm 0.00 in0.0 mm
07:15 AM 29.9°F-1.2°C 20.6°F-6.3°C 68% Calm Calm -- 30.73 in1040.6 mb 0.00 in0.0 mm 0.00 in0.0 mm 0.00 in0.0 mm
07:10 AM 29.8°F-1.2°C 20.5°F-6.4°C 68% Calm Calm 1.0 mph1.6 kmh 30.72 in1040.3 mb 0.00 in0.0 mm 0.00 in0.0 mm 0.00 in0.0 mm
07:05 AM 29.7°F-1.3°C 20.4°F-6.4°C 68% Calm Calm 1.0 mph1.6 kmh 30.72 in1040.3 mb 0.00 in0.0 mm 0.00 in0.0 mm 0.00 in0.0 mm
07:00 AM 29.5°F-1.4°C 20.2°F-6.6°C 68% Calm Calm 1.0 mph1.6 kmh 30.72 in1040.3 mb 0.00 in0.0 mm 0.00 in0.0 mm 0.00 in0.0 mm
06:55 AM 29.4°F-1.4°C 20.1°F-6.6°C 68% Calm Calm -- 30.72 in1040.3 mb 0.00 in0.0 mm 0.00 in0.0 mm 0.00 in0.0 mm
06:50 AM 29.3°F-1.5°C 20.0°F-6.7°C 68% Calm Calm -- 30.72 in1040.3 mb 0.00 in0.0 mm 0.00 in0.0 mm 0.00 in0.0 mm
06:45 AM 29.2°F-1.6°C 19.9°F-6.7°C 68% Calm Calm -- 30.72 in1040.3 mb 0.00 in0.0 mm 0.00 in0.0 mm 0.00 in0.0 mm
06:40 AM 29.1°F-1.6°C 19.5°F-6.9°C 67% Calm Calm 1.0 mph1.6 kmh 30.72 in1040.3 mb 0.00 in0.0 mm 0.00 in0.0 mm 0.00 in0.0 mm
06:35 AM 29.1°F-1.6°C 19.8°F-6.8°C 68% Calm Calm 3.0 mph4.8 kmh 30.72 in1040.3 mb 0.00 in0.0 mm 0.00 in0.0 mm 0.00 in0.0 mm
06:30 AM 28.9°F-1.7°C 19.6°F-6.9°C 68% 2.0 mph NNW3.2 kmh NNW 4.0 mph6.4 kmh 30.73 in1040.6 mb 0.00 in0.0 mm 0.00 in0.0 mm 0.00 in0.0 mm
06:25 AM 28.6°F-1.9°C 19.7°F-6.8°C 69% 1.0 mph NNW1.6 kmh NNW 3.0 mph4.8 kmh 30.73 in1040.6 mb 0.00 in0.0 mm 0.00 in0.0 mm 0.00 in0.0 mm
06:20 AM 28.3°F-2.1°C 19.4°F-7.0°C 69% 1.0 mph NNW1.6 kmh NNW 3.0 mph4.8 kmh 30.72 in1040.3 mb 0.00 in0.0 mm 0.00 in0.0 mm 0.00 in0.0 mm
06:15 AM 28.1°F-2.2°C 19.2°F-7.1°C 69% Calm Calm 4.0 mph6.4 kmh 30.71 in1040.0 mb 0.00 in0.0 mm 0.00 in0.0 mm 0.00 in0.0 mm
06:10 AM 28.0°F-2.2°C 19.1°F-7.2°C 69% 1.0 mph NNW1.6 kmh NNW 3.0 mph4.8 kmh 30.71 in1040.0 mb 0.00 in0.0 mm 0.00 in0.0 mm 0.00 in0.0 mm
06:05 AM 27.9°F-2.3°C 19.0°F-7.2°C 69% Calm Calm 3.0 mph4.8 kmh 30.71 in1040.0 mb 0.00 in0.0 mm 0.00 in0.0 mm 0.00 in0.0 mm
06:00 AM 27.8°F-2.3°C 19.3°F-7.1°C 70% Calm Calm 2.0 mph3.2 kmh 30.71 in1040.0 mb 0.00 in0.0 mm 0.00 in0.0 mm 0.00 in0.0 mm
05:55 AM 27.8°F-2.3°C 18.9°F-7.3°C 69% 2.0 mph NNW3.2 kmh NNW 2.0 mph3.2 kmh 30.71 in1040.0 mb 0.00 in0.0 mm 0.00 in0.0 mm 0.00 in0.0 mm
05:50 AM 27.8°F-2.3°C 18.9°F-7.3°C 69% Calm Calm -- 30.71 in1040.0 mb 0.00 in0.0 mm 0.00 in0.0 mm 0.00 in0.0 mm
05:45 AM 27.8°F-2.3°C 18.9°F-7.3°C 69% Calm Calm 1.0 mph1.6 kmh 30.71 in1040.0 mb 0.00 in0.0 mm 0.00 in0.0 mm 0.00 in0.0 mm
05:40 AM 27.9°F-2.3°C 19.0°F-7.2°C 69% Calm Calm 3.0 mph4.8 kmh 30.71 in1040.0 mb 0.00 in0.0 mm 0.00 in0.0 mm 0.00 in0.0 mm
05:35 AM 27.8°F-2.3°C 18.9°F-7.3°C 69% Calm Calm 1.0 mph1.6 kmh 30.71 in1040.0 mb 0.00 in0.0 mm 0.00 in0.0 mm 0.00 in0.0 mm
05:30 AM 27.8°F-2.3°C 18.9°F-7.3°C 69% Calm Calm 1.0 mph1.6 kmh 30.71 in1040.0 mb 0.00 in0.0 mm 0.00 in0.0 mm 0.00 in0.0 mm
05:25 AM 27.9°F-2.3°C 19.0°F-7.2°C 69% Calm Calm 1.0 mph1.6 kmh 30.71 in1040.0 mb 0.00 in0.0 mm 0.00 in0.0 mm 0.00 in0.0 mm
05:20 AM 27.8°F-2.3°C 18.9°F-7.3°C 69% Calm Calm 1.0 mph1.6 kmh 30.71 in1040.0 mb 0.00 in0.0 mm 0.00 in0.0 mm 0.00 in0.0 mm
05:15 AM 27.8°F-2.3°C 18.9°F-7.3°C 69% Calm Calm 1.0 mph1.6 kmh 30.71 in1040.0 mb 0.00 in0.0 mm 0.00 in0.0 mm 0.00 in0.0 mm
05:10 AM 27.7°F-2.4°C 18.8°F-7.3°C 69% Calm Calm 1.0 mph1.6 kmh 30.71 in1040.0 mb 0.00 in0.0 mm 0.00 in0.0 mm 0.00 in0.0 mm
05:05 AM 27.6°F-2.4°C 18.4°F-7.6°C 68% Calm Calm 2.0 mph3.2 kmh 30.71 in1040.0 mb 0.00 in0.0 mm 0.00 in0.0 mm 0.00 in0.0 mm
05:00 AM 27.6°F-2.4°C 18.4°F-7.6°C 68% Calm Calm 1.0 mph1.6 kmh 30.71 in1040.0 mb 0.00 in0.0 mm 0.00 in0.0 mm 0.00 in0.0 mm
04:55 AM 27.7°F-2.4°C 18.5°F-7.5°C 68% Calm Calm 1.0 mph1.6 kmh 30.71 in1040.0 mb 0.00 in0.0 mm 0.00 in0.0 mm 0.00 in0.0 mm
04:50 AM 27.7°F-2.4°C 18.5°F-7.5°C 68% Calm Calm 2.0 mph3.2 kmh 30.70 in1039.6 mb 0.00 in0.0 mm 0.00 in0.0 mm 0.00 in0.0 mm
04:45 AM 27.8°F-2.3°C 18.2°F-7.7°C 67% 1.0 mph NNW1.6 kmh NNW 2.0 mph3.2 kmh 30.71 in1040.0 mb 0.00 in0.0 mm 0.00 in0.0 mm 0.00 in0.0 mm
04:40 AM 27.9°F-2.3°C 18.3°F-7.6°C 67% Calm Calm 1.0 mph1.6 kmh 30.70 in1039.6 mb 0.00 in0.0 mm 0.00 in0.0 mm 0.00 in0.0 mm
04:35 AM 28.0°F-2.2°C 18.4°F-7.6°C 67% Calm Calm 1.0 mph1.6 kmh 30.70 in1039.6 mb 0.00 in0.0 mm 0.00 in0.0 mm 0.00 in0.0 mm
04:30 AM 28.0°F-2.2°C 18.1°F-7.7°C 66% Calm Calm 3.0 mph4.8 kmh 30.71 in1040.0 mb 0.00 in0.0 mm 0.00 in0.0 mm 0.00 in0.0 mm
04:25 AM 28.1°F-2.2°C 18.2°F-7.7°C 66% Calm Calm 2.0 mph3.2 kmh 30.71 in1040.0 mb 0.00 in0.0 mm 0.00 in0.0 mm 0.00 in0.0 mm
04:20 AM 28.2°F-2.1°C 18.3°F-7.6°C 66% Calm Calm 4.0 mph6.4 kmh 30.71 in1040.0 mb 0.00 in0.0 mm 0.00 in0.0 mm 0.00 in0.0 mm
04:15 AM 28.2°F-2.1°C 18.3°F-7.6°C 66% Calm Calm 2.0 mph3.2 kmh 30.71 in1040.0 mb 0.00 in0.0 mm 0.00 in0.0 mm 0.00 in0.0 mm
04:10 AM 28.3°F-2.1°C 18.4°F-7.6°C 66% 1.0 mph NNW1.6 kmh NNW 4.0 mph6.4 kmh 30.71 in1040.0 mb 0.00 in0.0 mm 0.00 in0.0 mm 0.00 in0.0 mm
04:05 AM 28.3°F-2.1°C 18.4°F-7.6°C 66% Calm Calm 3.0 mph4.8 kmh 30.72 in1040.3 mb 0.00 in0.0 mm 0.00 in0.0 mm 0.00 in0.0 mm
04:00 AM 28.3°F-2.1°C 18.0°F-7.8°C 65% Calm Calm 3.0 mph4.8 kmh 30.72 in1040.3 mb 0.00 in0.0 mm 0.00 in0.0 mm 0.00 in0.0 mm
03:55 AM 28.3°F-2.1°C 18.4°F-7.6°C 66% 1.0 mph NNW1.6 kmh NNW 3.0 mph4.8 kmh 30.72 in1040.3 mb 0.00 in0.0 mm 0.00 in0.0 mm 0.00 in0.0 mm
03:50 AM 28.3°F-2.1°C 18.4°F-7.6°C 66% Calm Calm 3.0 mph4.8 kmh 30.72 in1040.3 mb 0.00 in0.0 mm 0.00 in0.0 mm 0.00 in0.0 mm
03:46 AM 28.4°F-2.0°C 18.1°F-7.7°C 65% Calm Calm 2.0 mph3.2 kmh 30.72 in1040.3 mb 0.00 in0.0 mm 0.00 in0.0 mm 0.00 in0.0 mm
03:40 AM 28.4°F-2.0°C 18.1°F-7.7°C 65% Calm Calm 2.0 mph3.2 kmh 30.72 in1040.3 mb 0.00 in0.0 mm 0.00 in0.0 mm 0.00 in0.0 mm
03:35 AM 28.5°F-1.9°C 18.6°F-7.4°C 66% Calm Calm 1.0 mph1.6 kmh 30.72 in1040.3 mb 0.00 in0.0 mm 0.00 in0.0 mm 0.00 in0.0 mm
03:30 AM 28.5°F-1.9°C 18.2°F-7.7°C 65% Calm Calm 3.0 mph4.8 kmh 30.73 in1040.6 mb 0.00 in0.0 mm 0.00 in0.0 mm 0.00 in0.0 mm
03:25 AM 28.6°F-1.9°C 18.3°F-7.6°C 65% 1.0 mph NNW1.6 kmh NNW 4.0 mph6.4 kmh 30.73 in1040.6 mb 0.00 in0.0 mm 0.00 in0.0 mm 0.00 in0.0 mm
03:20 AM 28.6°F-1.9°C 18.3°F-7.6°C 65% Calm Calm 3.0 mph4.8 kmh 30.73 in1040.6 mb 0.00 in0.0 mm 0.00 in0.0 mm 0.00 in0.0 mm
03:15 AM 28.6°F-1.9°C 18.3°F-7.6°C 65% 1.0 mph NNW1.6 kmh NNW 3.0 mph4.8 kmh 30.73 in1040.6 mb 0.00 in0.0 mm 0.00 in0.0 mm 0.00 in0.0 mm
03:10 AM 28.7°F-1.8°C 18.4°F-7.6°C 65% 2.0 mph NNW3.2 kmh NNW 3.0 mph4.8 kmh 30.73 in1040.6 mb 0.00 in0.0 mm 0.00 in0.0 mm 0.00 in0.0 mm
03:05 AM 28.7°F-1.8°C 18.4°F-7.6°C 65% 1.0 mph NNW1.6 kmh NNW 4.0 mph6.4 kmh 30.73 in1040.6 mb 0.00 in0.0 mm 0.00 in0.0 mm 0.00 in0.0 mm
03:00 AM 28.8°F-1.8°C 18.1°F-7.7°C 64% Calm Calm 2.0 mph3.2 kmh 30.73 in1040.6 mb 0.00 in0.0 mm 0.00 in0.0 mm 0.00 in0.0 mm
02:55 AM 28.9°F-1.7°C 18.2°F-7.7°C 64% Calm Calm 2.0 mph3.2 kmh 30.73 in1040.6 mb 0.00 in0.0 mm 0.00 in0.0 mm 0.00 in0.0 mm
02:50 AM 29.0°F-1.7°C 18.3°F-7.6°C 64% 2.0 mph NNW3.2 kmh NNW 4.0 mph6.4 kmh 30.73 in1040.6 mb 0.00 in0.0 mm 0.00 in0.0 mm 0.00 in0.0 mm
02:45 AM 29.0°F-1.7°C 18.0°F-7.8°C 63% 1.0 mph NNW1.6 kmh NNW 4.0 mph6.4 kmh 30.73 in1040.6 mb 0.00 in0.0 mm 0.00 in0.0 mm 0.00 in0.0 mm
02:40 AM 29.2°F-1.6°C 18.1°F-7.7°C 63% Calm Calm 2.0 mph3.2 kmh 30.73 in1040.6 mb 0.00 in0.0 mm 0.00 in0.0 mm 0.00 in0.0 mm
02:35 AM 29.3°F-1.5°C 17.9°F-7.8°C 62% 1.0 mph NNW1.6 kmh NNW 2.0 mph3.2 kmh 30.73 in1040.6 mb 0.00 in0.0 mm 0.00 in0.0 mm 0.00 in0.0 mm
02:30 AM 29.3°F-1.5°C 17.9°F-7.8°C 62% 2.0 mph NNW3.2 kmh NNW 4.0 mph6.4 kmh 30.73 in1040.6 mb 0.00 in0.0 mm 0.00 in0.0 mm 0.00 in0.0 mm
02:25 AM 29.3°F-1.5°C 17.9°F-7.8°C 62% Calm Calm 3.0 mph4.8 kmh 30.73 in1040.6 mb 0.00 in0.0 mm 0.00 in0.0 mm 0.00 in0.0 mm
02:20 AM 29.3°F-1.5°C 17.5°F-8.1°C 61% Calm Calm 4.0 mph6.4 kmh 30.73 in1040.6 mb 0.00 in0.0 mm 0.00 in0.0 mm 0.00 in0.0 mm
02:15 AM 29.3°F-1.5°C 17.5°F-8.1°C 61% Calm Calm 3.0 mph4.8 kmh 30.73 in1040.6 mb 0.00 in0.0 mm 0.00 in0.0 mm 0.00 in0.0 mm
02:10 AM 29.3°F-1.5°C 17.5°F-8.1°C 61% Calm Calm 4.0 mph6.4 kmh 30.73 in1040.6 mb 0.00 in0.0 mm 0.00 in0.0 mm 0.00 in0.0 mm
02:05 AM 29.4°F-1.4°C 17.6°F-8.0°C 61% 2.0 mph NNW3.2 kmh NNW 4.0 mph6.4 kmh 30.73 in1040.6 mb 0.00 in0.0 mm 0.00 in0.0 mm 0.00 in0.0 mm
02:00 AM 29.5°F-1.4°C 17.3°F-8.2°C 60% 2.0 mph NNW3.2 kmh NNW 3.0 mph4.8 kmh 30.73 in1040.6 mb 0.00 in0.0 mm 0.00 in0.0 mm 0.00 in0.0 mm
01:55 AM 29.6°F-1.3°C 17.4°F-8.1°C 60% Calm Calm 3.0 mph4.8 kmh 30.73 in1040.6 mb 0.00 in0.0 mm 0.00 in0.0 mm 0.00 in0.0 mm
01:50 AM 29.6°F-1.3°C 17.4°F-8.1°C 60% 1.0 mph NNW1.6 kmh NNW 3.0 mph4.8 kmh 30.73 in1040.6 mb 0.00 in0.0 mm 0.00 in0.0 mm 0.00 in0.0 mm
01:45 AM 29.6°F-1.3°C 17.4°F-8.1°C 60% 1.0 mph NNW1.6 kmh NNW 3.0 mph4.8 kmh 30.73 in1040.6 mb 0.00 in0.0 mm 0.00 in0.0 mm 0.00 in0.0 mm
01:40 AM 29.6°F-1.3°C 17.4°F-8.1°C 60% 1.0 mph NNW1.6 kmh NNW 4.0 mph6.4 kmh 30.73 in1040.6 mb 0.00 in0.0 mm 0.00 in0.0 mm 0.00 in0.0 mm
01:35 AM 29.7°F-1.3°C 17.5°F-8.1°C 60% 1.0 mph NNW1.6 kmh NNW 2.0 mph3.2 kmh 30.73 in1040.6 mb 0.00 in0.0 mm 0.00 in0.0 mm 0.00 in0.0 mm
01:30 AM 29.7°F-1.3°C 17.5°F-8.1°C 60% Calm Calm 3.0 mph4.8 kmh 30.73 in1040.6 mb 0.00 in0.0 mm 0.00 in0.0 mm 0.00 in0.0 mm
01:25 AM 29.7°F-1.3°C 17.5°F-8.1°C 60% Calm Calm 4.0 mph6.4 kmh 30.73 in1040.6 mb 0.00 in0.0 mm 0.00 in0.0 mm 0.00 in0.0 mm
01:20 AM 29.7°F-1.3°C 17.5°F-8.1°C 60% 1.0 mph NNW1.6 kmh NNW 4.0 mph6.4 kmh 30.73 in1040.6 mb 0.00 in0.0 mm 0.00 in0.0 mm 0.00 in0.0 mm
01:15 AM 29.7°F-1.3°C 17.5°F-8.1°C 60% 1.0 mph NNW1.6 kmh NNW 3.0 mph4.8 kmh 30.73 in1040.6 mb 0.00 in0.0 mm 0.00 in0.0 mm 0.00 in0.0 mm
01:10 AM 29.7°F-1.3°C 17.5°F-8.1°C 60% Calm Calm 3.0 mph4.8 kmh 30.73 in1040.6 mb 0.00 in0.0 mm 0.00 in0.0 mm 0.00 in0.0 mm
01:05 AM 29.7°F-1.3°C 17.5°F-8.1°C 60% 1.0 mph NNW1.6 kmh NNW 3.0 mph4.8 kmh 30.73 in1040.6 mb 0.00 in0.0 mm 0.00 in0.0 mm 0.00 in0.0 mm
01:00 AM 29.7°F-1.3°C 17.9°F-7.8°C 61% 2.0 mph NNW3.2 kmh NNW 4.0 mph6.4 kmh 30.73 in1040.6 mb 0.00 in0.0 mm 0.00 in0.0 mm 0.00 in0.0 mm
12:55 AM 29.7°F-1.3°C 17.9°F-7.8°C 61% Calm Calm 2.0 mph3.2 kmh 30.73 in1040.6 mb 0.00 in0.0 mm 0.00 in0.0 mm 0.00 in0.0 mm
12:50 AM 29.7°F-1.3°C 17.9°F-7.8°C 61% Calm Calm 2.0 mph3.2 kmh 30.73 in1040.6 mb 0.00 in0.0 mm 0.00 in0.0 mm 0.00 in0.0 mm
12:45 AM 29.7°F-1.3°C 17.9°F-7.8°C 61% 1.0 mph NNW1.6 kmh NNW 3.0 mph4.8 kmh 30.73 in1040.6 mb 0.00 in0.0 mm 0.00 in0.0 mm 0.00 in0.0 mm
12:40 AM 29.8°F-1.2°C 18.0°F-7.8°C 61% Calm Calm 1.0 mph1.6 kmh 30.73 in1040.6 mb 0.00 in0.0 mm 0.00 in0.0 mm 0.00 in0.0 mm
12:35 AM 29.9°F-1.2°C 17.7°F-7.9°C 60% Calm Calm 1.0 mph1.6 kmh 30.73 in1040.6 mb 0.00 in0.0 mm 0.00 in0.0 mm 0.00 in0.0 mm
12:30 AM 30.0°F-1.1°C 17.8°F-7.9°C 60% Calm Calm 3.0 mph4.8 kmh 30.73 in1040.6 mb 0.00 in0.0 mm 0.00 in0.0 mm 0.00 in0.0 mm
12:25 AM 30.1°F-1.1°C 17.9°F-7.8°C 60% Calm Calm 1.0 mph1.6 kmh 30.73 in1040.6 mb 0.00 in0.0 mm 0.00 in0.0 mm 0.00 in0.0 mm
12:20 AM 30.2°F-1.0°C 18.0°F-7.8°C 60% 1.0 mph NNW1.6 kmh NNW 2.0 mph3.2 kmh 30.74 in1041.0 mb 0.00 in0.0 mm 0.00 in0.0 mm 0.00 in0.0 mm
12:15 AM 30.3°F-0.9°C 18.1°F-7.7°C 60% Calm Calm 2.0 mph3.2 kmh 30.74 in1041.0 mb 0.00 in0.0 mm 0.00 in0.0 mm 0.00 in0.0 mm
12:10 AM 30.4°F-0.9°C 17.8°F-7.9°C 59% Calm Calm 3.0 mph4.8 kmh 30.74 in1041.0 mb 0.00 in0.0 mm 0.00 in0.0 mm 0.00 in0.0 mm
12:05 AM 30.5°F-0.8°C 17.9°F-7.8°C 59% 1.0 mph NNW1.6 kmh NNW 4.0 mph6.4 kmh 30.74 in1041.0 mb 0.00 in0.0 mm 0.00 in0.0 mm 0.00 in0.0 mm
12:00 AM 30.5°F-0.8°C 17.9°F-7.8°C 59% 1.0 mph NNW1.6 kmh NNW 5.0 mph8.0 kmh 30.74 in1041.0 mb 0.00 in0.0 mm 0.00 in0.0 mm 0.00 in0.0 mm